Time;durP1;ratioP1;P1;durP2;ratioP2;P2;SDS_P1;SDS_P2;PMS_P1;PMS_P2;Temp;Humidity;BMP_temperature;BMP_pressure;BME280_temperature;BME280_humidity;BME280_pressure;Samples;Min_cycle;Max_cycle;Signal;HPM_P1;HPM_P2
2022/12/31 00:00:10;;;;;;;80.13;32.10;;;10.80;99.50;;;;;;5034608;28;20249;-66
2022/12/31 00:02:38;;;;;;;99.27;33.53;;;10.80;99.40;;;;;;5036339;28;20203;-66
2022/12/31 00:05:06;;;;;;;84.13;32.40;;;10.80;99.40;;;;;;5036649;28;20206;-65
2022/12/31 00:07:34;;;;;;;89.77;34.30;;;10.80;99.40;;;;;;5035515;28;20299;-66
2022/12/31 00:10:01;;;;;;;86.43;32.87;;;10.80;99.40;;;;;;5038397;28;20289;-66
2022/12/31 00:12:28;;;;;;;80.43;30.73;;;10.80;99.40;;;;;;5036882;28;20222;-65
2022/12/31 00:14:55;;;;;;;76.87;29.03;;;10.80;99.40;;;;;;5039184;28;20257;-66
2022/12/31 00:17:22;;;;;;;87.40;31.13;;;10.80;99.40;;;;;;5036573;28;20699;-65
2022/12/31 00:19:49;;;;;;;86.90;31.57;;;10.80;99.40;;;;;;5037439;28;20209;-66
2022/12/31 00:22:16;;;;;;;80.83;31.30;;;10.80;99.50;;;;;;5038802;28;20228;-66
2022/12/31 00:24:43;;;;;;;71.07;30.03;;;10.80;99.50;;;;;;5034333;28;20194;-66
2022/12/31 00:27:10;;;;;;;74.37;29.50;;;10.80;99.50;;;;;;5036039;28;20217;-66
2022/12/31 00:29:37;;;;;;;86.13;30.47;;;10.80;99.50;;;;;;5037998;28;20199;-65
2022/12/31 00:32:04;;;;;;;74.23;29.03;;;10.80;99.50;;;;;;5034979;28;20203;-65
2022/12/31 00:34:31;;;;;;;73.37;30.23;;;10.80;99.50;;;;;;5037624;28;20201;-66
2022/12/31 00:36:58;;;;;;;82.57;31.13;;;10.80;99.80;;;;;;5033532;28;20210;-65
2022/12/31 00:39:25;;;;;;;85.17;32.70;;;10.80;99.50;;;;;;5036522;28;20206;-66
2022/12/31 00:41:52;;;;;;;80.03;32.73;;;10.80;99.50;;;;;;5034706;28;20287;-66
2022/12/31 00:44:19;;;;;;;76.80;32.07;;;10.80;99.50;;;;;;5033779;28;20518;-66
2022/12/31 00:46:47;;;;;;;79.50;31.30;;;10.80;99.50;;;;;;5035812;28;20210;-66
2022/12/31 00:49:14;;;;;;;74.67;32.10;;;10.80;99.50;;;;;;5039335;28;20282;-65
2022/12/31 00:51:41;;;;;;;83.37;33.20;;;10.80;99.40;;;;;;5037526;28;20203;-66
2022/12/31 00:54:08;;;;;;;71.83;31.40;;;10.70;99.40;;;;;;5034586;28;20209;-65
2022/12/31 00:56:36;;;;;;;81.13;32.87;;;10.80;99.40;;;;;;5019053;28;20212;-65
2022/12/31 00:59:03;;;;;;;69.53;31.10;;;10.80;99.40;;;;;;5040400;28;20233;-66
2022/12/31 01:01:33;;;;;;;78.17;31.47;;;10.70;99.40;;;;;;5032961;28;20253;-66
2022/12/31 01:04:12;;;;;;;71.57;32.43;;;10.70;99.40;;;;;;5035580;28;20260;-65
2022/12/31 01:06:41;;;;;;;76.70;33.23;;;10.70;99.40;;;;;;5038458;28;20582;-65
2022/12/31 01:09:09;;;;;;;67.03;29.67;;;10.70;99.50;;;;;;5038674;28;20259;-66
2022/12/31 01:11:36;;;;;;;84.17;30.33;;;10.70;99.50;;;;;;5038935;28;20209;-65
2022/12/31 01:14:08;;;;;;;62.67;32.20;;;10.70;99.50;;;;;;5034044;28;20240;-65
2022/12/31 01:16:45;;;;;;;82.50;34.00;;;10.70;99.50;;;;;;5034877;28;20205;-66
2022/12/31 01:19:31;;;;;;;73.63;31.07;;;10.70;99.50;;;;;;5032927;28;20271;-66
2022/12/31 01:21:58;;;;;;;67.60;30.67;;;10.70;99.40;;;;;;5036851;28;20221;-66
2022/12/31 01:24:25;;;;;;;72.70;30.83;;;10.70;99.40;;;;;;5032342;28;20190;-65
2022/12/31 01:26:56;;;;;;;67.37;30.87;;;10.70;99.40;;;;;;5030832;28;20198;-66
2022/12/31 01:29:25;;;;;;;72.33;31.53;;;10.70;99.50;;;;;;5028543;28;20844;-65
2022/12/31 01:31:52;;;;;;;73.33;31.30;;;10.70;99.40;;;;;;5032334;28;20212;-66
2022/12/31 01:34:19;;;;;;;68.30;30.73;;;10.70;99.40;;;;;;5038642;28;20202;-65
2022/12/31 01:36:46;;;;;;;73.93;31.27;;;10.60;99.30;;;;;;5034337;28;20206;-66
2022/12/31 01:39:13;;;;;;;70.97;31.10;;;10.60;99.30;;;;;;5040926;28;20285;-66
2022/12/31 01:41:43;;;;;;;77.00;32.40;;;10.60;99.30;;;;;;5036951;28;20283;-66
2022/12/31 01:44:10;;;;;;;77.77;31.83;;;10.50;99.30;;;;;;5034925;28;20206;-66
2022/12/31 01:46:40;;;;;;;70.40;32.17;;;10.50;99.30;;;;;;5031231;28;20199;-66
2022/12/31 01:49:21;;;;;;;71.27;31.63;;;10.50;99.20;;;;;;5036890;28;20657;-66
2022/12/31 01:52:01;;;;;;;73.67;31.40;;;10.50;99.30;;;;;;5037746;28;20638;-66
2022/12/31 01:54:32;;;;;;;66.93;31.10;;;10.40;99.20;;;;;;5038142;28;20306;-66
2022/12/31 01:57:00;;;;;;;71.60;29.63;;;10.40;99.20;;;;;;5035270;28;20580;-66
2022/12/31 01:59:28;;;;;;;73.93;32.03;;;10.40;99.20;;;;;;5036014;28;20564;-66
2022/12/31 02:01:57;;;;;;;71.83;29.43;;;10.30;99.10;;;;;;5034278;28;20225;-66
2022/12/31 02:04:26;;;;;;;78.43;30.43;;;10.30;99.10;;;;;;5034369;28;20689;-66
2022/12/31 02:06:57;;;;;;;65.90;29.20;;;10.20;99.10;;;;;;5032975;28;20205;-66
2022/12/31 02:09:24;;;;;;;84.63;32.43;;;10.20;99.10;;;;;;5039115;28;20205;-66
2022/12/31 02:11:52;;;;;;;68.67;30.40;;;10.10;99.10;;;;;;5036739;28;20202;-66
2022/12/31 02:14:34;;;;;;;76.10;31.40;;;10.10;99.10;;;;;;5031157;28;20575;-66
2022/12/31 02:17:06;;;;;;;80.30;31.70;;;10.00;99.10;;;;;;5033019;28;20199;-66
2022/12/31 02:20:04;;;;;;;59.53;28.60;;;10.00;99.10;;;;;;5035737;28;20223;-66
2022/12/31 02:23:05;;;;;;;63.23;29.23;;;9.90;99.10;;;;;;5034088;28;20225;-66
2022/12/31 02:25:54;;;;;;;71.03;29.93;;;9.90;99.10;;;;;;5035532;28;20202;-66
2022/12/31 02:28:27;;;;;;;74.30;30.80;;;9.90;99.10;;;;;;5033703;28;20198;-66
2022/12/31 02:31:24;;;;;;;80.80;32.47;;;9.90;99.20;;;;;;5034656;28;20209;-66
2022/12/31 02:34:25;;;;;;;87.93;33.87;;;9.90;99.20;;;;;;5034810;28;20635;-66
2022/12/31 02:36:55;;;;;;;81.07;32.37;;;9.90;99.30;;;;;;5036170;28;20207;-66
2022/12/31 02:39:22;;;;;;;90.60;34.80;;;10.00;99.30;;;;;;5036344;28;20202;-66
2022/12/31 02:41:51;;;;;;;88.70;35.40;;;10.00;99.30;;;;;;5040138;28;20228;-66
2022/12/31 02:44:31;;;;;;;81.73;36.03;;;10.00;99.40;;;;;;5030819;28;20194;-66
2022/12/31 02:47:07;;;;;;;83.57;36.17;;;10.10;99.40;;;;;;5040158;28;20204;-66
2022/12/31 02:50:11;;;;;;;95.67;35.97;;;10.10;99.40;;;;;;5027889;28;20211;-66
2022/12/31 02:52:41;;;;;;;92.43;39.13;;;10.10;99.30;;;;;;5026961;28;20205;-66
2022/12/31 02:55:12;;;;;;;83.93;36.13;;;10.20;99.40;;;;;;5038654;28;20208;-66
2022/12/31 02:58:02;;;;;;;96.03;37.00;;;10.20;99.40;;;;;;5034340;28;20201;-66
2022/12/31 03:03:19;;;;;;;91.40;36.27;;;10.20;99.30;;;;;;5039266;28;20208;-66
2022/12/31 03:05:48;;;;;;;91.73;36.87;;;10.20;99.30;;;;;;5037423;28;20230;-66
2022/12/31 03:08:24;;;;;;;94.07;38.73;;;10.20;99.20;;;;;;5038024;28;20595;-65
2022/12/31 03:10:51;;;;;;;89.17;36.20;;;10.20;99.30;;;;;;5034728;28;20197;-66
2022/12/31 03:13:18;;;;;;;92.47;37.07;;;10.20;99.30;;;;;;5035992;28;20682;-66
2022/12/31 03:15:47;;;;;;;88.60;37.47;;;10.20;99.30;;;;;;5031234;28;20307;-66
2022/12/31 03:18:16;;;;;;;96.50;37.80;;;10.30;99.30;;;;;;5039026;28;20216;-66
2022/12/31 03:23:48;;;;;;;84.37;35.30;;;10.30;99.20;;;;;;5037416;28;20223;-66
2022/12/31 03:26:16;;;;;;;91.67;37.47;;;10.30;99.20;;;;;;5037353;28;20213;-66
2022/12/31 03:28:46;;;;;;;90.47;36.27;;;10.30;99.20;;;;;;5034532;28;20207;-66
2022/12/31 03:31:15;;;;;;;96.03;37.77;;;10.30;99.20;;;;;;5038164;28;20683;-66
2022/12/31 03:33:42;;;;;;;80.67;37.07;;;10.30;99.20;;;;;;5038390;28;20214;-66
2022/12/31 03:36:13;;;;;;;97.40;38.60;;;10.30;99.20;;;;;;5034162;28;20216;-65
2022/12/31 03:38:41;;;;;;;89.33;37.50;;;10.30;99.20;;;;;;5038545;28;20508;-65
2022/12/31 03:41:10;;;;;;;94.03;38.27;;;10.30;99.20;;;;;;5034578;28;20219;-65
2022/12/31 03:43:37;;;;;;;103.83;38.87;;;10.30;99.20;;;;;;5033078;28;20299;-65
2022/12/31 03:46:04;;;;;;;95.67;37.03;;;10.30;99.20;;;;;;5034636;28;20228;-65
2022/12/31 03:48:31;;;;;;;89.13;36.23;;;10.30;99.20;;;;;;5038502;28;20248;-66
2022/12/31 03:50:58;;;;;;;89.10;39.90;;;10.30;99.20;;;;;;5039665;28;20285;-65
2022/12/31 03:53:26;;;;;;;96.57;38.77;;;10.30;99.20;;;;;;5037354;28;20206;-65
2022/12/31 03:55:53;;;;;;;91.30;39.97;;;10.40;99.20;;;;;;5037825;28;20205;-65
2022/12/31 03:58:21;;;;;;;85.17;39.23;;;10.40;99.20;;;;;;5034625;28;20612;-65
2022/12/31 04:00:49;;;;;;;90.27;39.40;;;10.40;99.20;;;;;;5034996;28;20206;-65
2022/12/31 04:03:16;;;;;;;83.63;40.47;;;10.40;99.20;;;;;;5038496;28;20229;-65
2022/12/31 04:05:44;;;;;;;90.77;42.50;;;10.40;99.20;;;;;;5018122;28;20240;-66
2022/12/31 04:08:11;;;;;;;88.60;40.00;;;10.40;99.10;;;;;;5037481;28;20212;-65
2022/12/31 04:10:38;;;;;;;87.17;40.00;;;10.40;99.10;;;;;;5035593;28;20267;-65
2022/12/31 04:13:05;;;;;;;86.77;38.63;;;10.40;99.10;;;;;;5036949;28;20317;-65
2022/12/31 04:15:33;;;;;;;93.50;39.63;;;10.40;99.10;;;;;;5031705;28;20201;-65
2022/12/31 04:18:00;;;;;;;90.57;40.97;;;10.40;99.00;;;;;;5035497;28;20653;-65
2022/12/31 04:20:27;;;;;;;86.47;40.17;;;10.40;99.00;;;;;;5037721;28;20303;-65
2022/12/31 04:22:54;;;;;;;86.60;40.27;;;10.40;99.00;;;;;;5033823;28;20553;-65
2022/12/31 04:25:21;;;;;;;86.67;41.47;;;10.40;99.00;;;;;;5035783;28;20194;-65
2022/12/31 04:27:48;;;;;;;85.37;40.17;;;10.40;99.00;;;;;;5032945;28;20220;-65
2022/12/31 04:30:16;;;;;;;92.37;42.40;;;10.50;99.00;;;;;;5036350;28;20531;-66
2022/12/31 04:32:43;;;;;;;89.77;41.67;;;10.50;99.00;;;;;;5036915;28;20274;-66
2022/12/31 04:35:11;;;;;;;83.77;40.10;;;10.50;99.00;;;;;;5034810;28;20206;-66
2022/12/31 04:37:38;;;;;;;79.87;39.87;;;10.50;98.90;;;;;;5034667;28;20209;-66
2022/12/31 04:40:06;;;;;;;85.17;39.10;;;10.50;98.90;;;;;;5040597;28;20213;-66
2022/12/31 04:42:34;;;;;;;82.77;39.37;;;10.50;98.90;;;;;;5032451;28;20208;-65
2022/12/31 04:45:02;;;;;;;86.77;40.90;;;10.50;98.90;;;;;;5035077;28;20233;-65
2022/12/31 04:47:29;;;;;;;74.67;37.37;;;10.50;98.80;;;;;;5035901;28;20213;-65
2022/12/31 04:49:56;;;;;;;89.33;40.27;;;10.50;98.80;;;;;;5036566;28;20209;-65
2022/12/31 04:52:23;;;;;;;87.33;40.37;;;10.50;98.80;;;;;;5036775;28;20498;-66
2022/12/31 04:54:50;;;;;;;75.83;39.63;;;10.50;98.80;;;;;;5036232;28;20216;-66
2022/12/31 04:57:17;;;;;;;85.00;40.37;;;10.50;98.80;;;;;;5036297;28;20213;-66
2022/12/31 04:59:44;;;;;;;82.60;40.20;;;10.50;98.70;;;;;;5035419;28;20215;-66
2022/12/31 05:02:11;;;;;;;82.53;39.63;;;10.50;98.70;;;;;;5039037;28;20659;-65
2022/12/31 05:04:39;;;;;;;87.70;40.47;;;10.50;98.70;;;;;;5035988;28;20518;-66
2022/12/31 05:07:06;;;;;;;86.83;39.13;;;10.50;98.70;;;;;;5036162;28;20252;-66
2022/12/31 05:09:33;;;;;;;95.73;41.77;;;10.50;98.70;;;;;;5037263;28;20263;-66
2022/12/31 05:12:00;;;;;;;93.90;39.80;;;10.50;98.60;;;;;;5036737;28;20642;-65
2022/12/31 05:14:27;;;;;;;79.80;38.07;;;10.50;98.60;;;;;;5032291;28;20264;-66
2022/12/31 05:16:54;;;;;;;86.53;39.63;;;10.50;98.60;;;;;;5033932;28;20198;-65
2022/12/31 05:19:21;;;;;;;75.50;38.43;;;10.50;98.60;;;;;;5035995;28;20204;-66
2022/12/31 05:22:27;;;;;;;79.77;36.93;;;10.50;98.60;;;;;;5039546;28;20218;-66
2022/12/31 05:24:35;;;;;;;90.80;39.40;;;10.50;98.60;;;;;;5033739;28;20210;-66
2022/12/31 05:27:02;;;;;;;81.83;39.00;;;10.50;98.60;;;;;;5037550;28;20659;-65
2022/12/31 05:29:29;;;;;;;83.30;38.53;;;10.50;98.60;;;;;;5034727;28;20599;-65
2022/12/31 05:31:56;;;;;;;80.97;38.17;;;10.50;98.60;;;;;;5036340;28;20208;-66
2022/12/31 05:34:23;;;;;;;84.67;38.20;;;10.50;98.60;;;;;;5031123;28;20207;-66
2022/12/31 05:36:50;;;;;;;77.73;37.57;;;10.60;98.60;;;;;;5037538;28;20206;-66
2022/12/31 05:39:17;;;;;;;81.47;38.07;;;10.60;98.60;;;;;;5035147;28;20221;-65
2022/12/31 05:41:44;;;;;;;78.87;35.87;;;10.60;98.60;;;;;;5035150;28;20212;-66
2022/12/31 05:44:11;;;;;;;75.93;35.43;;;10.60;98.60;;;;;;5033752;28;20241;-65
2022/12/31 05:46:39;;;;;;;80.60;37.10;;;10.60;98.60;;;;;;5035838;28;20209;-65
2022/12/31 05:49:06;;;;;;;72.53;34.07;;;10.60;98.50;;;;;;5034939;28;20670;-66
2022/12/31 05:51:33;;;;;;;78.77;35.47;;;10.60;98.60;;;;;;5034927;28;20196;-66
2022/12/31 05:54:00;;;;;;;83.37;36.10;;;10.60;98.50;;;;;;5035963;28;20199;-65
2022/12/31 05:56:27;;;;;;;70.93;35.07;;;10.60;98.50;;;;;;5036415;28;20230;-66
2022/12/31 05:58:54;;;;;;;73.10;34.37;;;10.60;98.50;;;;;;5030532;28;20208;-66
2022/12/31 06:01:21;;;;;;;76.77;33.43;;;10.70;98.50;;;;;;5031263;28;20202;-66
2022/12/31 06:03:48;;;;;;;77.77;36.77;;;10.70;98.50;;;;;;5033971;28;20227;-66
2022/12/31 06:06:16;;;;;;;63.07;33.93;;;10.70;98.50;;;;;;5032491;28;20203;-66
2022/12/31 06:08:43;;;;;;;73.77;34.47;;;10.60;98.40;;;;;;5036147;28;20193;-65
2022/12/31 06:11:10;;;;;;;69.43;32.43;;;10.70;98.40;;;;;;5035266;28;20651;-66
2022/12/31 06:13:37;;;;;;;62.90;30.77;;;10.70;98.40;;;;;;5032134;28;20237;-66
2022/12/31 06:16:06;;;;;;;67.40;31.37;;;10.70;98.40;;;;;;5031858;28;20553;-66
2022/12/31 06:18:33;;;;;;;72.37;31.87;;;10.70;98.40;;;;;;5036010;28;20202;-65
2022/12/31 06:21:02;;;;;;;67.97;31.43;;;10.70;98.40;;;;;;5031856;28;20252;-65
2022/12/31 06:23:30;;;;;;;66.37;32.07;;;10.60;98.40;;;;;;5036478;28;20226;-66
2022/12/31 06:26:02;;;;;;;61.37;30.53;;;10.70;98.40;;;;;;5036249;28;20554;-65
2022/12/31 06:28:29;;;;;;;63.80;30.57;;;10.70;98.40;;;;;;5033582;28;20218;-65
2022/12/31 06:31:05;;;;;;;68.00;30.27;;;10.70;98.50;;;;;;5034207;28;20201;-65
2022/12/31 06:33:33;;;;;;;62.17;30.97;;;10.70;98.50;;;;;;5036896;28;20205;-66
2022/12/31 06:36:02;;;;;;;64.77;32.03;;;10.70;98.40;;;;;;5030877;28;20198;-65
2022/12/31 06:38:31;;;;;;;61.20;31.00;;;10.70;98.40;;;;;;5035456;28;20657;-65
2022/12/31 06:41:06;;;;;;;64.97;30.93;;;10.70;98.40;;;;;;5039343;28;20230;-65
2022/12/31 06:43:34;;;;;;;69.33;31.33;;;10.70;98.40;;;;;;5034335;28;20226;-66
2022/12/31 06:46:02;;;;;;;63.30;31.33;;;10.70;98.40;;;;;;5033878;28;20297;-65
2022/12/31 06:48:29;;;;;;;59.00;31.57;;;10.70;98.40;;;;;;5036530;28;20284;-65
2022/12/31 06:51:02;;;;;;;62.20;29.00;;;10.70;98.40;;;;;;5034341;28;20218;-66
2022/12/31 06:53:29;;;;;;;59.50;28.27;;;10.70;98.40;;;;;;5035477;28;20264;-66
2022/12/31 06:56:04;;;;;;;56.27;30.43;;;10.70;98.40;;;;;;5034211;28;20264;-65
2022/12/31 06:58:32;;;;;;;60.17;30.87;;;10.70;98.30;;;;;;5034063;28;20642;-66
2022/12/31 07:01:36;;;;;;;61.83;29.67;;;10.70;98.30;;;;;;5036202;28;20228;-65
2022/12/31 07:04:24;;;;;;;60.63;29.30;;;10.70;98.30;;;;;;5034205;28;20226;-66
2022/12/31 07:07:01;;;;;;;57.43;28.43;;;10.70;98.30;;;;;;5029960;28;20202;-66
2022/12/31 07:10:03;;;;;;;58.43;29.20;;;10.70;98.30;;;;;;5037637;28;20210;-65
2022/12/31 07:12:39;;;;;;;51.73;27.83;;;10.70;98.30;;;;;;5032382;28;20632;-66
2022/12/31 07:15:24;;;;;;;62.57;29.67;;;10.80;98.30;;;;;;5032030;28;20670;-65
2022/12/31 07:18:04;;;;;;;56.27;29.07;;;10.80;98.30;;;;;;5032021;28;20202;-66
2022/12/31 07:20:32;;;;;;;54.50;29.40;;;10.80;98.30;;;;;;5019191;28;20241;-65
2022/12/31 07:22:59;;;;;;;49.80;28.37;;;10.80;98.30;;;;;;5035883;28;20249;-66
2022/12/31 07:25:26;;;;;;;53.77;28.67;;;10.80;98.20;;;;;;5038919;28;20288;-65
2022/12/31 07:28:34;;;;;;;61.27;29.47;;;10.90;98.20;;;;;;5033896;28;20202;-66
2022/12/31 07:31:32;;;;;;;51.60;27.03;;;10.90;98.20;;;;;;5036346;28;20216;-66
2022/12/31 07:34:08;;;;;;;57.73;26.73;;;10.90;98.20;;;;;;5036949;28;20210;-65
2022/12/31 07:36:53;;;;;;;48.93;26.47;;;10.90;98.20;;;;;;5036636;28;20193;-65
2022/12/31 07:39:46;;;;;;;53.83;26.50;;;10.90;98.40;;;;;;5038668;28;20700;-65
2022/12/31 07:42:31;;;;;;;43.17;26.23;;;10.90;98.10;;;;;;5036084;28;20210;-66
2022/12/31 07:45:39;;;;;;;49.47;27.23;;;11.00;98.20;;;;;;5036891;28;20214;-65
2022/12/31 07:48:27;;;;;;;48.27;26.23;;;11.00;98.20;;;;;;5034066;28;20233;-65
2022/12/31 07:50:56;;;;;;;48.10;27.63;;;11.10;98.20;;;;;;5037188;28;20224;-65
2022/12/31 07:53:24;;;;;;;49.47;27.10;;;11.20;98.20;;;;;;5031057;28;20645;-65
2022/12/31 07:55:58;;;;;;;48.30;26.80;;;11.30;98.20;;;;;;5039163;28;20268;-66
2022/12/31 07:58:39;;;;;;;52.60;28.47;;;11.40;98.10;;;;;;5034710;28;20205;-65
2022/12/31 08:01:12;;;;;;;50.13;27.87;;;11.40;98.00;;;;;;5031491;28;20269;-66
2022/12/31 08:04:00;;;;;;;51.47;30.03;;;11.50;97.90;;;;;;5031091;28;20291;-66
2022/12/31 08:07:06;;;;;;;56.27;30.57;;;11.60;97.80;;;;;;5034741;28;20205;-65
2022/12/31 08:09:39;;;;;;;53.63;30.77;;;11.70;97.70;;;;;;5035771;28;20217;-65
2022/12/31 08:12:07;;;;;;;47.77;30.10;;;11.80;97.60;;;;;;5032041;28;20199;-65
2022/12/31 08:14:42;;;;;;;51.47;30.37;;;11.80;97.40;;;;;;5031740;28;20272;-65
2022/12/31 08:17:14;;;;;;;52.60;30.70;;;11.90;97.20;;;;;;5036082;28;20204;-65
2022/12/31 08:19:42;;;;;;;53.60;32.10;;;12.00;97.20;;;;;;5033285;28;20681;-65
2022/12/31 08:22:30;;;;;;;55.20;30.07;;;12.00;97.10;;;;;;5035712;28;20552;-65
2022/12/31 08:25:29;;;;;;;51.80;29.13;;;12.10;97.00;;;;;;5034834;28;20219;-65
2022/12/31 08:28:18;;;;;;;53.63;31.40;;;12.20;96.80;;;;;;5033696;28;20584;-65
2022/12/31 08:31:03;;;;;;;51.77;31.87;;;12.20;96.70;;;;;;5032470;28;20599;-65
2022/12/31 08:33:42;;;;;;;52.90;32.00;;;12.30;96.50;;;;;;5035018;28;20316;-65
2022/12/31 08:36:18;;;;;;;53.17;31.63;;;12.40;96.30;;;;;;5033072;28;20201;-65
2022/12/31 08:39:37;;;;;;;59.43;33.80;;;12.40;96.20;;;;;;5031873;28;20534;-65
2022/12/31 08:42:17;;;;;;;53.33;32.83;;;12.50;95.90;;;;;;5035314;28;20203;-65
2022/12/31 08:44:54;;;;;;;58.27;33.50;;;12.50;95.70;;;;;;5035902;28;20593;-65
2022/12/31 08:47:39;;;;;;;48.73;31.57;;;12.50;95.50;;;;;;5034005;28;20218;-65
2022/12/31 08:50:12;;;;;;;54.03;33.27;;;12.50;95.40;;;;;;5038828;28;20520;-65
2022/12/31 08:52:39;;;;;;;54.93;32.17;;;12.60;95.10;;;;;;5035367;28;20197;-65
2022/12/31 08:55:07;;;;;;;52.77;32.03;;;12.60;94.30;;;;;;5033731;28;20208;-65
2022/12/31 08:58:16;;;;;;;60.47;34.53;;;12.60;94.40;;;;;;5034594;28;20200;-65
2022/12/31 09:00:46;;;;;;;51.83;31.73;;;12.60;94.30;;;;;;5036042;28;20580;-65
2022/12/31 09:03:40;;;;;;;52.13;32.23;;;12.60;94.10;;;;;;5037846;28;20218;-65
2022/12/31 09:06:31;;;;;;;49.90;32.10;;;12.60;93.30;;;;;;5036757;28;20209;-65
2022/12/31 09:09:20;;;;;;;54.00;31.90;;;12.60;92.90;;;;;;5035455;28;20199;-65
2022/12/31 09:11:46;;;;;;;52.67;33.53;;;12.50;92.60;;;;;;5018548;28;20648;-65
2022/12/31 09:14:27;;;;;;;53.03;32.07;;;12.50;92.50;;;;;;5034520;28;20258;-65
2022/12/31 09:17:12;;;;;;;58.13;35.53;;;12.50;92.30;;;;;;5035975;28;20210;-65
2022/12/31 09:19:39;;;;;;;52.27;30.30;;;12.50;92.70;;;;;;5038134;28;20631;-65
2022/12/31 09:22:08;;;;;;;50.80;32.10;;;12.50;92.70;;;;;;5037602;28;20210;-65
2022/12/31 09:24:35;;;;;;;50.00;32.83;;;12.60;92.60;;;;;;5033431;28;20206;-65
2022/12/31 09:27:21;;;;;;;59.97;34.83;;;12.60;92.70;;;;;;5034590;28;20228;-65
2022/12/31 09:30:03;;;;;;;53.73;31.77;;;12.70;92.70;;;;;;5036353;28;20194;-65
2022/12/31 09:32:48;;;;;;;53.73;33.77;;;12.70;92.60;;;;;;5033679;28;20313;-65
2022/12/31 09:35:41;;;;;;;49.60;33.63;;;12.70;92.40;;;;;;5030792;28;20210;-65
2022/12/31 09:38:11;;;;;;;55.50;35.37;;;12.80;92.50;;;;;;5032813;28;20191;-65
2022/12/31 09:40:47;;;;;;;49.93;33.60;;;12.80;92.40;;;;;;5034267;28;20229;-65
2022/12/31 09:43:43;;;;;;;50.53;34.43;;;12.90;91.50;;;;;;5034194;28;20639;-65
2022/12/31 09:46:32;;;;;;;51.30;33.97;;;12.90;91.30;;;;;;5033469;28;20233;-64
2022/12/31 09:49:20;;;;;;;48.93;32.90;;;12.90;91.50;;;;;;5035325;28;20202;-65
2022/12/31 09:52:03;;;;;;;46.83;31.53;;;13.00;91.60;;;;;;5034520;28;20207;-65
2022/12/31 09:54:32;;;;;;;48.60;33.17;;;13.10;91.30;;;;;;5034811;28;20240;-65
2022/12/31 09:57:31;;;;;;;50.60;32.73;;;13.00;90.20;;;;;;5028431;28;20202;-64
2022/12/31 10:00:14;;;;;;;45.90;32.13;;;13.00;90.40;;;;;;5032880;28;20234;-65
2022/12/31 10:03:12;;;;;;;45.10;30.80;;;12.90;90.70;;;;;;5033629;28;20204;-65
2022/12/31 10:05:55;;;;;;;45.70;31.37;;;12.90;90.40;;;;;;5032380;28;20211;-64
2022/12/31 10:08:43;;;;;;;39.87;28.97;;;12.90;90.30;;;;;;5032585;28;20189;-64
2022/12/31 10:11:22;;;;;;;42.50;29.57;;;13.00;90.70;;;;;;5030122;28;20822;-65
2022/12/31 10:14:26;;;;;;;46.13;29.83;;;13.00;90.90;;;;;;5033929;28;20645;-64
2022/12/31 10:17:16;;;;;;;48.93;30.43;;;13.10;91.00;;;;;;5031531;28;20313;-64
2022/12/31 10:19:58;;;;;;;42.73;29.17;;;13.20;91.00;;;;;;5034239;28;20212;-65
2022/12/31 10:22:50;;;;;;;47.00;29.73;;;13.30;90.20;;;;;;5033912;28;20557;-65
2022/12/31 10:25:20;;;;;;;49.33;30.67;;;13.40;90.30;;;;;;5031005;28;20223;-64
2022/12/31 10:28:22;;;;;;;48.50;31.67;;;13.40;90.40;;;;;;5032923;28;20273;-64
2022/12/31 10:31:13;;;;;;;42.70;29.20;;;13.50;90.60;;;;;;5034603;28;20215;-65
2022/12/31 10:33:41;;;;;;;46.17;29.60;;;13.60;90.80;;;;;;5035193;28;20530;-65
2022/12/31 10:36:14;;;;;;;48.37;30.37;;;13.60;90.80;;;;;;5032518;28;20190;-65
2022/12/31 10:39:11;;;;;;;40.43;27.63;;;13.70;90.90;;;;;;5037408;28;20198;-65
2022/12/31 10:41:58;;;;;;;42.10;29.00;;;13.80;90.80;;;;;;5029452;28;20191;-65
2022/12/31 10:44:50;;;;;;;42.33;30.10;;;13.80;90.60;;;;;;5032087;28;20210;-65
2022/12/31 10:48:02;;;;;;;46.50;31.30;;;13.90;90.40;;;;;;5038189;28;20210;-64
2022/12/31 10:50:53;;;;;;;45.43;30.20;;;13.90;90.30;;;;;;5034932;28;20230;-65
2022/12/31 10:53:51;;;;;;;45.33;30.77;;;14.00;90.30;;;;;;5032813;28;20195;-65
2022/12/31 10:56:18;;;;;;;37.87;27.20;;;14.10;90.30;;;;;;5027750;28;20187;-65
2022/12/31 10:59:03;;;;;;;41.43;28.63;;;14.10;87.80;;;;;;5034515;28;20192;-64
2022/12/31 11:01:36;;;;;;;45.17;30.00;;;14.10;87.80;;;;;;5037451;28;20206;-65
2022/12/31 11:04:12;;;;;;;43.33;29.37;;;14.10;88.30;;;;;;5036082;28;20218;-65
2022/12/31 11:06:51;;;;;;;41.87;27.57;;;14.20;88.40;;;;;;5039425;28;20195;-65
2022/12/31 11:09:52;;;;;;;42.13;28.43;;;14.30;87.10;;;;;;5039611;28;20207;-65
2022/12/31 11:12:56;;;;;;;39.80;27.93;;;14.30;86.70;;;;;;5034738;28;20260;-65
2022/12/31 11:15:55;;;;;;;34.70;25.23;;;14.30;86.50;;;;;;5036358;28;20600;-65
2022/12/31 11:18:44;;;;;;;37.73;25.80;;;14.30;85.00;;;;;;5036774;28;20701;-64
2022/12/31 11:21:26;;;;;;;44.60;26.73;;;14.40;84.10;;;;;;5038394;28;20203;-65
2022/12/31 11:24:17;;;;;;;39.53;27.63;;;14.30;84.70;;;;;;5035759;28;20662;-65
2022/12/31 11:27:12;;;;;;;40.80;27.20;;;14.40;85.30;;;;;;5034296;28;20195;-64
2022/12/31 11:30:11;;;;;;;39.40;26.33;;;14.40;85.60;;;;;;5036464;28;20634;-65
2022/12/31 11:33:09;;;;;;;42.80;28.07;;;14.50;85.20;;;;;;5033596;28;20298;-65
2022/12/31 11:36:00;;;;;;;36.17;25.93;;;14.60;85.20;;;;;;5038583;28;20196;-64
2022/12/31 11:38:29;;;;;;;37.63;25.90;;;14.60;84.30;;;;;;5038993;28;20764;-65
2022/12/31 11:41:08;;;;;;;35.93;24.30;;;14.70;83.90;;;;;;5035696;28;20199;-65
2022/12/31 11:43:58;;;;;;;37.47;24.93;;;14.60;82.70;;;;;;5035457;28;20215;-65
2022/12/31 11:46:49;;;;;;;34.00;25.30;;;14.70;83.80;;;;;;5038371;28;20191;-64
2022/12/31 11:49:38;;;;;;;35.90;25.20;;;14.70;84.40;;;;;;5035876;28;20202;-65
2022/12/31 11:52:13;;;;;;;35.30;24.43;;;14.80;84.40;;;;;;5035452;28;20192;-65
2022/12/31 11:54:47;;;;;;;36.70;24.77;;;14.80;81.90;;;;;;5047095;28;20300;-65
2022/12/31 11:57:33;;;;;;;38.70;26.37;;;14.70;82.30;;;;;;5035727;28;20463;-65
2022/12/31 12:00:17;;;;;;;43.17;27.93;;;14.70;81.20;;;;;;5035635;28;20207;-64
2022/12/31 12:03:05;;;;;;;39.77;27.30;;;14.70;81.60;;;;;;5036336;28;20214;-65
2022/12/31 12:05:33;;;;;;;41.13;27.63;;;14.70;81.50;;;;;;5035072;28;20281;-65
2022/12/31 12:08:01;;;;;;;41.63;29.00;;;14.70;80.40;;;;;;5037591;28;20198;-65
2022/12/31 12:10:59;;;;;;;37.10;27.53;;;14.70;80.60;;;;;;5035548;28;20680;-65
2022/12/31 12:13:28;;;;;;;42.10;28.70;;;14.70;81.20;;;;;;5035627;28;20239;-65
2022/12/31 12:15:58;;;;;;;38.27;26.73;;;14.70;80.50;;;;;;5038292;28;20569;-64
2022/12/31 12:18:26;;;;;;;47.40;30.00;;;14.80;79.50;;;;;;5037784;28;20623;-64
2022/12/31 12:21:05;;;;;;;41.77;30.93;;;14.70;79.40;;;;;;5037251;28;20207;-65
2022/12/31 12:23:32;;;;;;;45.77;31.30;;;14.70;79.90;;;;;;5038230;28;20616;-64
2022/12/31 12:25:59;;;;;;;43.87;32.57;;;14.70;80.50;;;;;;5031196;28;20284;-64
2022/12/31 12:28:29;;;;;;;42.63;31.27;;;14.70;80.50;;;;;;5037234;28;20195;-65
2022/12/31 12:31:03;;;;;;;43.87;31.90;;;14.70;79.10;;;;;;5034212;28;20526;-65
2022/12/31 12:33:42;;;;;;;46.53;33.10;;;14.60;79.80;;;;;;5036606;28;20198;-64
2022/12/31 12:36:11;;;;;;;49.33;33.77;;;14.60;80.70;;;;;;5037079;28;20199;-65
2022/12/31 12:38:39;;;;;;;44.10;32.90;;;14.60;81.30;;;;;;5042116;28;20267;-64
2022/12/31 12:41:24;;;;;;;44.90;33.60;;;14.60;81.70;;;;;;5032678;28;20302;-64
2022/12/31 12:44:06;;;;;;;49.37;33.53;;;14.60;82.10;;;;;;5035338;28;20261;-65
2022/12/31 12:46:42;;;;;;;47.10;33.67;;;14.80;82.40;;;;;;5036765;28;20198;-65
2022/12/31 12:49:20;;;;;;;46.13;32.73;;;14.90;81.20;;;;;;5038667;28;20199;-64
2022/12/31 12:52:24;;;;;;;42.03;33.33;;;14.90;80.80;;;;;;5038435;28;20201;-64
2022/12/31 12:55:10;;;;;;;47.80;32.90;;;14.90;80.40;;;;;;5035171;28;20265;-65
2022/12/31 12:57:47;;;;;;;44.90;33.40;;;14.80;79.80;;;;;;5032420;28;20210;-64
2022/12/31 13:00:36;;;;;;;46.83;32.83;;;14.80;80.00;;;;;;5036146;28;20217;-65
2022/12/31 13:03:22;;;;;;;46.60;32.47;;;14.70;80.30;;;;;;5038947;28;20205;-64
2022/12/31 13:06:20;;;;;;;50.07;32.70;;;14.70;80.80;;;;;;5038174;28;20230;-64
2022/12/31 13:09:26;;;;;;;46.60;32.03;;;14.70;80.70;;;;;;5040470;28;20195;-64
2022/12/31 13:12:33;;;;;;;42.97;31.07;;;14.70;80.90;;;;;;5032285;28;20294;-65
2022/12/31 13:15:45;;;;;;;47.67;32.77;;;14.60;80.60;;;;;;5033331;28;20242;-65
2022/12/31 13:18:39;;;;;;;47.20;32.57;;;14.60;80.70;;;;;;5040135;28;20209;-65